sensor_id;sensor_type;location;lat;lon;timestamp;pressure;altitude;pressure_sealevel;temperature;humidity
23589;BME280;11972;48.078;11.876;2022-11-18T00:00:32;93815.25;;;7.40;100.00
23589;BME280;11972;48.078;11.876;2022-11-18T00:04:33;93824.16;;;7.39;100.00
23589;BME280;11972;48.078;11.876;2022-11-18T00:08:33;93811.41;;;7.36;100.00
23589;BME280;11972;48.078;11.876;2022-11-18T00:12:33;93814.03;;;7.36;100.00
23589;BME280;11972;48.078;11.876;2022-11-18T00:16:53;93789.81;;;7.34;100.00
23589;BME280;11972;48.078;11.876;2022-11-18T00:20:54;93793.03;;;7.36;100.00
23589;BME280;11972;48.078;11.876;2022-11-18T00:24:54;93786.78;;;7.37;100.00
23589;BME280;11972;48.078;11.876;2022-11-18T00:28:55;93780.53;;;7.38;100.00
23589;BME280;11972;48.078;11.876;2022-11-18T00:32:55;93767.97;;;7.40;100.00
23589;BME280;11972;48.078;11.876;2022-11-18T00:36:55;93771.00;;;7.44;100.00
23589;BME280;11972;48.078;11.876;2022-11-18T00:45:03;93771.63;;;7.39;100.00
23589;BME280;11972;48.078;11.876;2022-11-18T00:49:04;93774.25;;;7.39;100.00
23589;BME280;11972;48.078;11.876;2022-11-18T00:53:05;93765.16;;;7.35;100.00
23589;BME280;11972;48.078;11.876;2022-11-18T00:57:05;93761.53;;;7.30;100.00
23589;BME280;11972;48.078;11.876;2022-11-18T01:01:05;93757.91;;;7.24;100.00
23589;BME280;11972;48.078;11.876;2022-11-18T01:05:06;93752.66;;;7.24;100.00
23589;BME280;11972;48.078;11.876;2022-11-18T01:09:06;93743.56;;;7.20;100.00
23589;BME280;11972;48.078;11.876;2022-11-18T01:13:11;93743.38;;;7.15;100.00
23589;BME280;11972;48.078;11.876;2022-11-18T01:17:21;93742.56;;;7.14;100.00
23589;BME280;11972;48.078;11.876;2022-11-18T01:21:22;93752.28;;;7.14;100.00
23589;BME280;11972;48.078;11.876;2022-11-18T01:25:22;93741.56;;;7.15;100.00
23589;BME280;11972;48.078;11.876;2022-11-18T01:29:23;93735.50;;;7.15;100.00
23589;BME280;11972;48.078;11.876;2022-11-18T01:33:23;93735.94;;;7.12;100.00
23589;BME280;11972;48.078;11.876;2022-11-18T01:37:23;93738.56;;;7.12;100.00
23589;BME280;11972;48.078;11.876;2022-11-18T01:41:25;93732.09;;;7.08;100.00
23589;BME280;11972;48.078;11.876;2022-11-18T01:45:33;93702.63;;;7.06;100.00
23589;BME280;11972;48.078;11.876;2022-11-18T01:49:34;93694.94;;;7.04;100.00
23589;BME280;11972;48.078;11.876;2022-11-18T01:53:38;93698.97;;;7.07;100.00
23589;BME280;11972;48.078;11.876;2022-11-18T01:57:40;93707.88;;;7.06;100.00
23589;BME280;11972;48.078;11.876;2022-11-18T02:01:41;93716.13;;;7.03;100.00
23589;BME280;11972;48.078;11.876;2022-11-18T02:05:43;93734.09;;;6.99;100.00
23589;BME280;11972;48.078;11.876;2022-11-18T02:09:45;93720.41;;;6.97;100.00
23589;BME280;11972;48.078;11.876;2022-11-18T02:13:46;93724.44;;;7.00;100.00
23589;BME280;11972;48.078;11.876;2022-11-18T02:17:59;93730.91;;;7.04;100.00
23589;BME280;11972;48.078;11.876;2022-11-18T02:26:53;93730.44;;;7.20;100.00
23589;BME280;11972;48.078;11.876;2022-11-18T02:35:42;93740.94;;;7.33;100.00
23589;BME280;11972;48.078;11.876;2022-11-18T02:39:51;93738.31;;;7.33;100.00
23589;BME280;11972;48.078;11.876;2022-11-18T02:44:02;93735.69;;;7.33;100.00
23589;BME280;11972;48.078;11.876;2022-11-18T02:48:08;93736.88;;;7.37;100.00
23589;BME280;11972;48.078;11.876;2022-11-18T02:52:11;93727.19;;;7.38;100.00
23589;BME280;11972;48.078;11.876;2022-11-18T02:56:14;93724.34;;;7.39;100.00
23589;BME280;11972;48.078;11.876;2022-11-18T03:00:15;93728.78;;;7.39;100.00
23589;BME280;11972;48.078;11.876;2022-11-18T03:04:17;93728.00;;;7.38;100.00
23589;BME280;11972;48.078;11.876;2022-11-18T03:08:22;93723.38;;;7.27;100.00
23589;BME280;11972;48.078;11.876;2022-11-18T03:21:07;93717.09;;;7.28;100.00
23589;BME280;11972;48.078;11.876;2022-11-18T03:25:37;93726.03;;;7.20;100.00
23589;BME280;11972;48.078;11.876;2022-11-18T03:29:48;93714.69;;;7.20;100.00
23589;BME280;11972;48.078;11.876;2022-11-18T03:33:57;93721.16;;;7.24;100.00
23589;BME280;11972;48.078;11.876;2022-11-18T03:38:07;93722.16;;;7.30;100.00
23589;BME280;11972;48.078;11.876;2022-11-18T03:46:38;93734.06;;;7.32;100.00
23589;BME280;11972;48.078;11.876;2022-11-18T03:50:50;93739.13;;;7.27;100.00
23589;BME280;11972;48.078;11.876;2022-11-18T03:54:53;93743.16;;;7.23;100.00
23589;BME280;11972;48.078;11.876;2022-11-18T03:59:02;93743.38;;;7.21;100.00
23589;BME280;11972;48.078;11.876;2022-11-18T04:03:03;93751.06;;;7.16;100.00
23589;BME280;11972;48.078;11.876;2022-11-18T04:11:25;93769.66;;;7.08;100.00
23589;BME280;11972;48.078;11.876;2022-11-18T04:15:45;93773.28;;;7.01;100.00
23589;BME280;11972;48.078;11.876;2022-11-18T04:19:46;93780.16;;;6.95;100.00
23589;BME280;11972;48.078;11.876;2022-11-18T04:23:46;93794.88;;;6.89;100.00
23589;BME280;11972;48.078;11.876;2022-11-18T04:27:47;93795.09;;;6.81;100.00
23589;BME280;11972;48.078;11.876;2022-11-18T04:31:47;93808.41;;;6.73;100.00
23589;BME280;11972;48.078;11.876;2022-11-18T04:35:47;93816.06;;;6.68;100.00
23589;BME280;11972;48.078;11.876;2022-11-18T04:39:48;93806.97;;;6.64;100.00
23589;BME280;11972;48.078;11.876;2022-11-18T04:43:48;93801.13;;;6.55;100.00
23589;BME280;11972;48.078;11.876;2022-11-18T04:47:49;93805.94;;;6.52;100.00
23589;BME280;11972;48.078;11.876;2022-11-18T04:51:50;93801.91;;;6.49;100.00
23589;BME280;11972;48.078;11.876;2022-11-18T04:55:50;93807.56;;;6.46;100.00
23589;BME280;11972;48.078;11.876;2022-11-18T04:59:50;93793.03;;;6.50;100.00
23589;BME280;11972;48.078;11.876;2022-11-18T05:03:51;93791.44;;;6.56;100.00
23589;BME280;11972;48.078;11.876;2022-11-18T05:07:51;93778.09;;;6.57;100.00
23589;BME280;11972;48.078;11.876;2022-11-18T05:11:52;93789.63;;;6.63;100.00
23589;BME280;11972;48.078;11.876;2022-11-18T05:16:11;93780.75;;;6.64;100.00
23589;BME280;11972;48.078;11.876;2022-11-18T05:20:12;93779.72;;;6.65;100.00
23589;BME280;11972;48.078;11.876;2022-11-18T05:24:13;93779.72;;;6.65;100.00
23589;BME280;11972;48.078;11.876;2022-11-18T05:28:13;93778.94;;;6.64;100.00
23589;BME280;11972;48.078;11.876;2022-11-18T05:32:13;93777.09;;;6.65;100.00
23589;BME280;11972;48.078;11.876;2022-11-18T05:36:16;93773.91;;;6.63;100.00
23589;BME280;11972;48.078;11.876;2022-11-18T05:40:17;93774.06;;;6.61;100.00
23589;BME280;11972;48.078;11.876;2022-11-18T05:44:17;93773.28;;;6.61;100.00
23589;BME280;11972;48.078;11.876;2022-11-18T05:48:18;93777.69;;;6.54;100.00
23589;BME280;11972;48.078;11.876;2022-11-18T05:52:18;93784.75;;;6.46;100.00
23589;BME280;11972;48.078;11.876;2022-11-18T05:56:30;93791.81;;;6.39;100.00
23589;BME280;11972;48.078;11.876;2022-11-18T06:00:32;93792.19;;;6.30;100.00
23589;BME280;11972;48.078;11.876;2022-11-18T06:04:37;93791.16;;;6.24;100.00
23589;BME280;11972;48.078;11.876;2022-11-18T06:08:43;93788.72;;;6.16;100.00
23589;BME280;11972;48.078;11.876;2022-11-18T06:12:46;93788.88;;;6.08;100.00
23589;BME280;11972;48.078;11.876;2022-11-18T06:16:52;93789.69;;;6.02;100.00
23589;BME280;11972;48.078;11.876;2022-11-18T06:20:56;93799.94;;;5.96;100.00
23589;BME280;11972;48.078;11.876;2022-11-18T06:24:59;93804.91;;;5.91;100.00
23589;BME280;11972;48.078;11.876;2022-11-18T06:28:59;93802.88;;;5.87;100.00
23589;BME280;11972;48.078;11.876;2022-11-18T06:33:00;93812.94;;;5.83;100.00
23589;BME280;11972;48.078;11.876;2022-11-18T06:37:11;93814.19;;;5.87;100.00
23589;BME280;11972;48.078;11.876;2022-11-18T06:41:12;93820.63;;;5.91;100.00
23589;BME280;11972;48.078;11.876;2022-11-18T06:45:12;93819.66;;;5.92;100.00
23589;BME280;11972;48.078;11.876;2022-11-18T06:49:12;93828.75;;;5.96;100.00
23589;BME280;11972;48.078;11.876;2022-11-18T06:53:13;93840.06;;;6.04;100.00
23589;BME280;11972;48.078;11.876;2022-11-18T06:57:13;93848.16;;;6.09;100.00
23589;BME280;11972;48.078;11.876;2022-11-18T07:01:19;93854.25;;;6.09;100.00
23589;BME280;11972;48.078;11.876;2022-11-18T07:05:22;93854.25;;;6.16;100.00
23589;BME280;11972;48.078;11.876;2022-11-18T07:09:23;93858.66;;;6.09;100.00
23589;BME280;11972;48.078;11.876;2022-11-18T07:13:23;93854.63;;;6.13;100.00
23589;BME280;11972;48.078;11.876;2022-11-18T07:17:24;93866.00;;;6.27;100.00
23589;BME280;11972;48.078;11.876;2022-11-18T07:21:26;93874.09;;;6.38;100.00
23589;BME280;11972;48.078;11.876;2022-11-18T07:25:26;93879.78;;;6.49;100.00
23589;BME280;11972;48.078;11.876;2022-11-18T07:29:27;93882.59;;;6.47;100.00
23589;BME280;11972;48.078;11.876;2022-11-18T07:33:27;93885.88;;;6.56;100.00
23589;BME280;11972;48.078;11.876;2022-11-18T07:37:28;93888.31;;;6.64;100.00
23589;BME280;11972;48.078;11.876;2022-11-18T07:41:29;93896.00;;;6.72;100.00
23589;BME280;11972;48.078;11.876;2022-11-18T07:45:29;93895.81;;;6.80;100.00
23589;BME280;11972;48.078;11.876;2022-11-18T07:49:29;93896.44;;;6.89;100.00
23589;BME280;11972;48.078;11.876;2022-11-18T07:53:30;93905.75;;;6.91;100.00
23589;BME280;11972;48.078;11.876;2022-11-18T07:57:31;93908.97;;;6.93;100.00
23589;BME280;11972;48.078;11.876;2022-11-18T08:01:31;93911.78;;;6.99;100.00
23589;BME280;11972;48.078;11.876;2022-11-18T08:05:32;93914.22;;;7.07;100.00
23589;BME280;11972;48.078;11.876;2022-11-18T08:09:32;93914.25;;;7.13;100.00
23589;BME280;11972;48.078;11.876;2022-11-18T08:13:33;93917.47;;;7.22;100.00
23589;BME280;11972;48.078;11.876;2022-11-18T08:17:34;93917.28;;;7.30;100.00
23589;BME280;11972;48.078;11.876;2022-11-18T08:21:34;93922.94;;;7.40;100.00
23589;BME280;11972;48.078;11.876;2022-11-18T08:25:35;93944.56;;;7.42;100.00
23589;BME280;11972;48.078;11.876;2022-11-18T08:29:35;93923.97;;;7.39;100.00
23589;BME280;11972;48.078;11.876;2022-11-18T08:33:35;93936.47;;;7.44;100.00
23589;BME280;11972;48.078;11.876;2022-11-18T08:37:37;93932.03;;;7.51;100.00
23589;BME280;11972;48.078;11.876;2022-11-18T08:41:40;93935.69;;;7.50;100.00
23589;BME280;11972;48.078;11.876;2022-11-18T08:45:41;93956.50;;;7.45;100.00
23589;BME280;11972;48.078;11.876;2022-11-18T08:49:41;93949.00;;;7.35;100.00
23589;BME280;11972;48.078;11.876;2022-11-18T08:53:42;93957.06;;;7.27;100.00
23589;BME280;11972;48.078;11.876;2022-11-18T08:57:42;93967.16;;;7.24;100.00
23589;BME280;11972;48.078;11.876;2022-11-18T09:01:43;93961.50;;;7.13;100.00
23589;BME280;11972;48.078;11.876;2022-11-18T09:05:43;93974.81;;;7.05;100.00
23589;BME280;11972;48.078;11.876;2022-11-18T09:09:43;93976.44;;;7.00;100.00
23589;BME280;11972;48.078;11.876;2022-11-18T09:13:44;93988.91;;;6.97;100.00
23589;BME280;11972;48.078;11.876;2022-11-18T09:17:45;93988.97;;;7.04;100.00
23589;BME280;11972;48.078;11.876;2022-11-18T09:21:45;93980.09;;;7.12;100.00
23589;BME280;11972;48.078;11.876;2022-11-18T09:25:46;93992.41;;;7.18;100.00
23589;BME280;11972;48.078;11.876;2022-11-18T09:29:46;94001.09;;;7.18;100.00
23589;BME280;11972;48.078;11.876;2022-11-18T09:33:47;94001.13;;;7.25;100.00
23589;BME280;11972;48.078;11.876;2022-11-18T09:37:47;94012.44;;;7.26;100.00
23589;BME280;11972;48.078;11.876;2022-11-18T09:41:57;94009.19;;;7.17;100.00
23589;BME280;11972;48.078;11.876;2022-11-18T09:46:04;94016.00;;;7.05;100.00
23589;BME280;11972;48.078;11.876;2022-11-18T09:50:13;94018.00;;;7.03;100.00
23589;BME280;11972;48.078;11.876;2022-11-18T09:54:25;94018.63;;;7.05;100.00
23589;BME280;11972;48.078;11.876;2022-11-18T09:58:33;94011.59;;;7.18;100.00
23589;BME280;11972;48.078;11.876;2022-11-18T10:02:51;94018.06;;;7.22;100.00
23589;BME280;11972;48.078;11.876;2022-11-18T10:06:56;94018.09;;;7.29;100.00
23589;BME280;11972;48.078;11.876;2022-11-18T10:11:32;94016.28;;;7.36;100.00
23589;BME280;11972;48.078;11.876;2022-11-18T10:16:28;94028.56;;;7.16;100.00
23589;BME280;11972;48.078;11.876;2022-11-18T10:20:46;94033.34;;;6.99;100.00
23589;BME280;11972;48.078;11.876;2022-11-18T10:24:51;94026.44;;;6.85;100.00
23589;BME280;11972;48.078;11.876;2022-11-18T10:28:52;94030.66;;;6.79;100.00
23589;BME280;11972;48.078;11.876;2022-11-18T10:37:07;94033.91;;;6.46;100.00
23589;BME280;11972;48.078;11.876;2022-11-18T10:41:15;94028.69;;;6.46;100.00
23589;BME280;11972;48.078;11.876;2022-11-18T10:49:20;94025.03;;;6.47;100.00
23589;BME280;11972;48.078;11.876;2022-11-18T10:53:35;94027.13;;;6.59;100.00
23589;BME280;11972;48.078;11.876;2022-11-18T10:57:39;94028.75;;;6.60;100.00
23589;BME280;11972;48.078;11.876;2022-11-18T11:01:42;94032.28;;;6.45;100.00
23589;BME280;11972;48.078;11.876;2022-11-18T11:05:42;94027.81;;;6.39;100.00
23589;BME280;11972;48.078;11.876;2022-11-18T11:09:43;94019.53;;;6.36;100.00
23589;BME280;11972;48.078;11.876;2022-11-18T11:13:44;94012.44;;;6.30;100.00
23589;BME280;11972;48.078;11.876;2022-11-18T11:22:10;94026.78;;;6.06;100.00
23589;BME280;11972;48.078;11.876;2022-11-18T11:30:34;94042.69;;;5.83;100.00
23589;BME280;11972;48.078;11.876;2022-11-18T11:52:32;94031.94;;;6.55;100.00
23589;BME280;11972;48.078;11.876;2022-11-18T12:00:50;94032.84;;;6.41;100.00
23589;BME280;11972;48.078;11.876;2022-11-18T12:05:09;94041.34;;;6.43;100.00
23589;BME280;11972;48.078;11.876;2022-11-18T12:09:21;94053.25;;;6.45;100.00
23589;BME280;11972;48.078;11.876;2022-11-18T12:13:49;94048.41;;;6.42;100.00
23589;BME280;11972;48.078;11.876;2022-11-18T12:17:57;94050.25;;;6.42;100.00
23589;BME280;11972;48.078;11.876;2022-11-18T12:22:02;94046.78;;;6.41;100.00
23589;BME280;11972;48.078;11.876;2022-11-18T12:26:07;94049.44;;;6.48;100.00
23589;BME280;11972;48.078;11.876;2022-11-18T12:30:17;94050.09;;;6.57;100.00
23589;BME280;11972;48.078;11.876;2022-11-18T12:38:31;94053.09;;;6.47;100.00
23589;BME280;11972;48.078;11.876;2022-11-18T12:42:41;94057.28;;;6.41;100.00
23589;BME280;11972;48.078;11.876;2022-11-18T12:47:03;94058.66;;;6.37;100.00
23589;BME280;11972;48.078;11.876;2022-11-18T12:55:24;94065.03;;;6.21;100.00
23589;BME280;11972;48.078;11.876;2022-11-18T12:59:30;94085.31;;;6.13;100.00
23589;BME280;11972;48.078;11.876;2022-11-18T13:03:31;94104.78;;;6.04;100.00
23589;BME280;11972;48.078;11.876;2022-11-18T13:07:38;94119.63;;;5.96;100.00
23589;BME280;11972;48.078;11.876;2022-11-18T13:12:00;94098.78;;;5.88;100.00
23589;BME280;11972;48.078;11.876;2022-11-18T13:16:04;94107.63;;;5.87;100.00
23589;BME280;11972;48.078;11.876;2022-11-18T13:20:35;94100.78;;;5.86;100.00
23589;BME280;11972;48.078;11.876;2022-11-18T13:24:42;94115.25;;;5.82;100.00
23589;BME280;11972;48.078;11.876;2022-11-18T13:32:50;94101.41;;;5.67;100.00
23589;BME280;11972;48.078;11.876;2022-11-18T13:36:54;94117.50;;;5.64;100.00
23589;BME280;11972;48.078;11.876;2022-11-18T13:40:55;94110.56;;;5.56;100.00
23589;BME280;11972;48.078;11.876;2022-11-18T13:45:12;94131.38;;;5.43;100.00
23589;BME280;11972;48.078;11.876;2022-11-18T13:49:16;94127.19;;;5.27;100.00
23589;BME280;11972;48.078;11.876;2022-11-18T13:53:30;94132.31;;;5.20;100.00
23589;BME280;11972;48.078;11.876;2022-11-18T13:57:33;94117.78;;;5.18;100.00
23589;BME280;11972;48.078;11.876;2022-11-18T14:01:34;94135.75;;;5.21;100.00
23589;BME280;11972;48.078;11.876;2022-11-18T14:05:34;94125.53;;;5.26;100.00
23589;BME280;11972;48.078;11.876;2022-11-18T14:09:35;94130.41;;;5.29;100.00
23589;BME280;11972;48.078;11.876;2022-11-18T14:13:48;94129.41;;;5.30;100.00
23589;BME280;11972;48.078;11.876;2022-11-18T14:17:56;94133.13;;;5.36;100.00
23589;BME280;11972;48.078;11.876;2022-11-18T14:22:17;94133.81;;;5.44;100.00
23589;BME280;11972;48.078;11.876;2022-11-18T14:26:31;94138.69;;;5.47;100.00
23589;BME280;11972;48.078;11.876;2022-11-18T14:30:37;94138.69;;;5.47;100.00
23589;BME280;11972;48.078;11.876;2022-11-18T14:34:39;94154.56;;;5.46;100.00
23589;BME280;11972;48.078;11.876;2022-11-18T14:38:46;94151.13;;;5.45;100.00
23589;BME280;11972;48.078;11.876;2022-11-18T14:42:48;94149.41;;;5.53;100.00
23589;BME280;11972;48.078;11.876;2022-11-18T14:46:51;94153.41;;;5.48;100.00
23589;BME280;11972;48.078;11.876;2022-11-18T14:50:53;94153.66;;;5.54;100.00
23589;BME280;11972;48.078;11.876;2022-11-18T14:54:53;94159.34;;;5.57;100.00
23589;BME280;11972;48.078;11.876;2022-11-18T14:58:53;94155.97;;;5.63;100.00
23589;BME280;11972;48.078;11.876;2022-11-18T15:02:54;94153.97;;;5.65;100.00
23589;BME280;11972;48.078;11.876;2022-11-18T15:06:54;94164.09;;;5.68;100.00
23589;BME280;11972;48.078;11.876;2022-11-18T15:10:55;94163.91;;;5.70;100.00
23589;BME280;11972;48.078;11.876;2022-11-18T15:14:55;94161.94;;;5.72;100.00
23589;BME280;11972;48.078;11.876;2022-11-18T15:18:58;94168.59;;;5.75;100.00
23589;BME280;11972;48.078;11.876;2022-11-18T15:22:59;94189.00;;;5.79;100.00
23589;BME280;11972;48.078;11.876;2022-11-18T15:26:59;94198.84;;;5.77;100.00
23589;BME280;11972;48.078;11.876;2022-11-18T15:31:04;94196.69;;;5.66;100.00
23589;BME280;11972;48.078;11.876;2022-11-18T15:35:04;94200.44;;;5.57;100.00
23589;BME280;11972;48.078;11.876;2022-11-18T15:39:05;94214.88;;;5.53;100.00
23589;BME280;11972;48.078;11.876;2022-11-18T15:43:05;94194.28;;;5.50;100.00
23589;BME280;11972;48.078;11.876;2022-11-18T15:47:06;94202.97;;;5.50;100.00
23589;BME280;11972;48.078;11.876;2022-11-18T15:51:06;94206.38;;;5.51;100.00
23589;BME280;11972;48.078;11.876;2022-11-18T15:55:07;94203.50;;;5.45;100.00
23589;BME280;11972;48.078;11.876;2022-11-18T15:59:10;94205.69;;;5.42;100.00
23589;BME280;11972;48.078;11.876;2022-11-18T16:03:10;94209.50;;;5.39;100.00
23589;BME280;11972;48.078;11.876;2022-11-18T16:07:11;94211.66;;;5.36;100.00
23589;BME280;11972;48.078;11.876;2022-11-18T16:11:13;94221.31;;;5.35;100.00
23589;BME280;11972;48.078;11.876;2022-11-18T16:15:33;94228.34;;;5.35;100.00
23589;BME280;11972;48.078;11.876;2022-11-18T16:19:42;94221.03;;;5.30;100.00
23589;BME280;11972;48.078;11.876;2022-11-18T16:23:42;94229.88;;;5.29;100.00
23589;BME280;11972;48.078;11.876;2022-11-18T16:27:43;94231.69;;;5.29;100.00
23589;BME280;11972;48.078;11.876;2022-11-18T16:31:45;94237.19;;;5.34;100.00
23589;BME280;11972;48.078;11.876;2022-11-18T16:35:49;94246.50;;;5.36;100.00
23589;BME280;11972;48.078;11.876;2022-11-18T16:39:50;94248.13;;;5.37;100.00
23589;BME280;11972;48.078;11.876;2022-11-18T16:43:50;94253.34;;;5.37;100.00
23589;BME280;11972;48.078;11.876;2022-11-18T16:47:50;94247.31;;;5.37;100.00
23589;BME280;11972;48.078;11.876;2022-11-18T16:51:52;94258.25;;;5.40;100.00
23589;BME280;11972;48.078;11.876;2022-11-18T16:56:01;94259.88;;;5.41;100.00
23589;BME280;11972;48.078;11.876;2022-11-18T17:00:05;94274.22;;;5.45;100.00
23589;BME280;11972;48.078;11.876;2022-11-18T17:04:05;94276.94;;;5.52;100.00
23589;BME280;11972;48.078;11.876;2022-11-18T17:08:06;94271.50;;;5.54;100.00
23589;BME280;11972;48.078;11.876;2022-11-18T17:12:06;94276.13;;;5.52;100.00
23589;BME280;11972;48.078;11.876;2022-11-18T17:16:09;94293.81;;;5.50;100.00
23589;BME280;11972;48.078;11.876;2022-11-18T17:20:10;94287.31;;;5.45;100.00
23589;BME280;11972;48.078;11.876;2022-11-18T17:24:12;94284.97;;;5.51;100.00
23589;BME280;11972;48.078;11.876;2022-11-18T17:28:13;94302.75;;;5.55;100.00
23589;BME280;11972;48.078;11.876;2022-11-18T17:32:13;94301.38;;;5.59;100.00
23589;BME280;11972;48.078;11.876;2022-11-18T17:36:16;94307.47;;;5.60;100.00
23589;BME280;11972;48.078;11.876;2022-11-18T17:40:16;94306.47;;;5.61;100.00
23589;BME280;11972;48.078;11.876;2022-11-18T17:44:17;94312.50;;;5.61;100.00
23589;BME280;11972;48.078;11.876;2022-11-18T17:48:18;94305.66;;;5.60;100.00
23589;BME280;11972;48.078;11.876;2022-11-18T17:52:19;94306.47;;;5.61;100.00
23589;BME280;11972;48.078;11.876;2022-11-18T17:56:20;94310.09;;;5.60;100.00
23589;BME280;11972;48.078;11.876;2022-11-18T18:00:20;94313.69;;;5.59;100.00
23589;BME280;11972;48.078;11.876;2022-11-18T18:04:21;94322.88;;;5.55;100.00
23589;BME280;11972;48.078;11.876;2022-11-18T18:08:21;94331.75;;;5.54;100.00
23589;BME280;11972;48.078;11.876;2022-11-18T18:12:21;94341.06;;;5.56;100.00
23589;BME280;11972;48.078;11.876;2022-11-18T18:16:44;94339.25;;;5.57;100.00
23589;BME280;11972;48.078;11.876;2022-11-18T18:20:45;94347.91;;;5.57;100.00
23589;BME280;11972;48.078;11.876;2022-11-18T18:24:45;94341.88;;;5.57;100.00
23589;BME280;11972;48.078;11.876;2022-11-18T18:28:46;94348.38;;;5.61;100.00
23589;BME280;11972;48.078;11.876;2022-11-18T18:32:47;94343.50;;;5.58;100.00
23589;BME280;11972;48.078;11.876;2022-11-18T18:36:47;94336.19;;;5.53;100.00
23589;BME280;11972;48.078;11.876;2022-11-18T18:40:47;94344.38;;;5.35;100.00
23589;BME280;11972;48.078;11.876;2022-11-18T18:44:48;94352.31;;;5.27;100.00
23589;BME280;11972;48.078;11.876;2022-11-18T18:49:07;94349.19;;;5.09;100.00
23589;BME280;11972;48.078;11.876;2022-11-18T18:53:08;94348.06;;;4.88;100.00
23589;BME280;11972;48.078;11.876;2022-11-18T18:57:08;94354.75;;;4.68;100.00
23589;BME280;11972;48.078;11.876;2022-11-18T19:01:14;94352.63;;;4.48;100.00
23589;BME280;11972;48.078;11.876;2022-11-18T19:05:14;94369.59;;;4.53;100.00
23589;BME280;11972;48.078;11.876;2022-11-18T19:09:15;94369.22;;;4.79;100.00
23589;BME280;11972;48.078;11.876;2022-11-18T19:13:15;94371.06;;;4.93;100.00
23589;BME280;11972;48.078;11.876;2022-11-18T19:17:16;94379.66;;;5.02;100.00
23589;BME280;11972;48.078;11.876;2022-11-18T19:21:16;94382.69;;;5.13;100.00
23589;BME280;11972;48.078;11.876;2022-11-18T19:25:17;94380.25;;;5.12;100.00
23589;BME280;11972;48.078;11.876;2022-11-18T19:29:17;94384.00;;;4.94;100.00
23589;BME280;11972;48.078;11.876;2022-11-18T19:33:18;94387.34;;;4.80;100.00
23589;BME280;11972;48.078;11.876;2022-11-18T19:37:18;94389.69;;;4.75;100.00
23589;BME280;11972;48.078;11.876;2022-11-18T19:41:19;94399.22;;;4.91;100.00
23589;BME280;11972;48.078;11.876;2022-11-18T19:45:19;94404.22;;;5.01;100.00
23589;BME280;11972;48.078;11.876;2022-11-18T19:49:20;94411.06;;;5.02;100.00
23589;BME280;11972;48.078;11.876;2022-11-18T19:53:20;94407.50;;;5.03;100.00
23589;BME280;11972;48.078;11.876;2022-11-18T19:57:34;94411.06;;;5.02;100.00
23589;BME280;11972;48.078;11.876;2022-11-18T20:01:34;94407.84;;;5.00;100.00
23589;BME280;11972;48.078;11.876;2022-11-18T20:05:34;94396.72;;;4.97;100.00
23589;BME280;11972;48.078;11.876;2022-11-18T20:09:53;94402.31;;;4.94;100.00
23589;BME280;11972;48.078;11.876;2022-11-18T20:13:53;94406.56;;;4.95;100.00
23589;BME280;11972;48.078;11.876;2022-11-18T20:17:53;94415.41;;;4.94;100.00
23589;BME280;11972;48.078;11.876;2022-11-18T20:21:54;94414.69;;;5.01;100.00
23589;BME280;11972;48.078;11.876;2022-11-18T20:25:54;94416.69;;;4.98;100.00
23589;BME280;11972;48.078;11.876;2022-11-18T20:29:55;94426.69;;;4.95;100.00
23589;BME280;11972;48.078;11.876;2022-11-18T20:33:55;94427.34;;;4.89;100.00
23589;BME280;11972;48.078;11.876;2022-11-18T20:37:56;94425.59;;;4.81;100.00
23589;BME280;11972;48.078;11.876;2022-11-18T20:41:56;94422.47;;;4.63;100.00
23589;BME280;11972;48.078;11.876;2022-11-18T20:46:17;94421.59;;;4.39;100.00
23589;BME280;11972;48.078;11.876;2022-11-18T20:50:18;94430.50;;;4.22;100.00
23589;BME280;11972;48.078;11.876;2022-11-18T20:54:18;94431.38;;;4.06;100.00
23589;BME280;11972;48.078;11.876;2022-11-18T20:58:19;94435.50;;;3.92;100.00
23589;BME280;11972;48.078;11.876;2022-11-18T21:02:19;94431.97;;;3.77;100.00
23589;BME280;11972;48.078;11.876;2022-11-18T21:06:23;94423.16;;;3.62;100.00
23589;BME280;11972;48.078;11.876;2022-11-18T21:10:23;94445.06;;;3.53;100.00
23589;BME280;11972;48.078;11.876;2022-11-18T21:14:24;94445.72;;;3.63;100.00
23589;BME280;11972;48.078;11.876;2022-11-18T21:18:27;94447.28;;;3.88;100.00
23589;BME280;11972;48.078;11.876;2022-11-18T21:22:28;94452.19;;;3.91;100.00
23589;BME280;11972;48.078;11.876;2022-11-18T21:26:30;94447.28;;;3.88;100.00
23589;BME280;11972;48.078;11.876;2022-11-18T21:30:31;94448.09;;;3.89;100.00
23589;BME280;11972;48.078;11.876;2022-11-18T21:34:31;94450.88;;;3.95;100.00
23589;BME280;11972;48.078;11.876;2022-11-18T21:38:31;94443.00;;;4.04;100.00
23589;BME280;11972;48.078;11.876;2022-11-18T21:42:32;94451.63;;;4.12;100.00
23589;BME280;11972;48.078;11.876;2022-11-18T21:46:33;94465.84;;;4.10;100.00
23589;BME280;11972;48.078;11.876;2022-11-18T21:50:34;94473.38;;;4.05;100.00
23589;BME280;11972;48.078;11.876;2022-11-18T21:54:34;94474.34;;;4.04;100.00
23589;BME280;11972;48.078;11.876;2022-11-18T21:58:36;94474.97;;;4.14;100.00
23589;BME280;11972;48.078;11.876;2022-11-18T22:02:36;94485.06;;;4.25;100.00
23589;BME280;11972;48.078;11.876;2022-11-18T22:06:37;94494.19;;;4.29;100.00
23589;BME280;11972;48.078;11.876;2022-11-18T22:10:37;94492.56;;;4.28;100.00
23589;BME280;11972;48.078;11.876;2022-11-18T22:14:38;94487.69;;;4.25;100.00
23589;BME280;11972;48.078;11.876;2022-11-18T22:18:41;94484.41;;;4.23;100.00
23589;BME280;11972;48.078;11.876;2022-11-18T22:22:42;94489.00;;;4.21;100.00
23589;BME280;11972;48.078;11.876;2022-11-18T22:26:42;94482.00;;;4.13;100.00
23589;BME280;11972;48.078;11.876;2022-11-18T22:30:42;94479.09;;;4.00;100.00
23589;BME280;11972;48.078;11.876;2022-11-18T22:34:43;94477.16;;;3.86;100.00